Time;durP1;ratioP1;P1;durP2;ratioP2;P2;SDS_P1;SDS_P2;PMS_P1;PMS_P2;Temp;Humidity;BMP_temperature;BMP_pressure;BME280_temperature;BME280_humidity;BME280_pressure;Samples;Min_cycle;Max_cycle;Signal;HPM_P1;HPM_P2
2021/04/22 00:01:58;;;;;;;15.80;4.00;;;;;;;;;;5094167;28;20251;-62
2021/04/22 00:04:25;;;;;;;12.85;5.63;;;;;;;;;;5093743;28;20668;-62
2021/04/22 00:06:51;;;;;;;18.35;4.82;;;;;;;;;;5093827;28;20224;-61
2021/04/22 00:09:18;;;;;;;11.73;3.42;;;;;;;;;;5093814;28;20588;-60
2021/04/22 00:11:46;;;;;;;7.65;3.50;;;;;;;;;;5093729;28;20261;-61
2021/04/22 00:14:14;;;;;;;10.48;3.83;;;;;;;;;;5095592;28;20201;-61
2021/04/22 00:16:41;;;;;;;10.82;4.32;;;;;;;;;;5094989;28;20243;-60
2021/04/22 00:19:07;;;;;;;12.70;3.58;;;;;;;;;;5093885;28;20550;-61
2021/04/22 00:21:35;;;;;;;15.15;3.90;;;;;;;;;;5094076;28;20662;-60
2021/04/22 00:24:01;;;;;;;11.65;4.13;;;;;;;;;;5096633;28;20205;-61
2021/04/22 00:26:28;;;;;;;14.50;4.15;;;;;;;;;;5098231;28;20680;-61
2021/04/22 00:28:56;;;;;;;9.00;4.00;;;;;;;;;;5098322;28;20221;-61
2021/04/22 00:31:23;;;;;;;10.73;4.07;;;;;;;;;;5098050;28;20570;-61
2021/04/22 00:33:50;;;;;;;19.42;4.78;;;;;;;;;;5099663;28;20202;-62
2021/04/22 00:36:17;;;;;;;16.52;4.93;;;;;;;;;;5111969;28;20225;-61
2021/04/22 00:38:44;;;;;;;10.85;4.25;;;;;;;;;;5111994;28;20204;-61
2021/04/22 00:41:11;;;;;;;16.67;5.30;;;;;;;;;;5113682;28;20254;-62
2021/04/22 00:43:38;;;;;;;17.08;4.93;;;;;;;;;;5109561;28;20206;-61
2021/04/22 00:46:04;;;;;;;13.90;4.57;;;;;;;;;;5110604;28;20220;-61
2021/04/22 00:48:32;;;;;;;10.48;3.75;;;;;;;;;;5106097;28;20217;-61
2021/04/22 00:50:59;;;;;;;12.30;3.95;;;;;;;;;;5110125;28;20196;-61
2021/04/22 00:53:26;;;;;;;13.60;4.55;;;;;;;;;;5105216;28;20204;-61
2021/04/22 00:55:55;;;;;;;13.50;4.60;;;;;;;;;;5103155;28;20222;-61
2021/04/22 00:58:22;;;;;;;11.90;3.92;;;;;;;;;;5106703;28;20287;-60
2021/04/22 01:00:53;;;;;;;10.63;4.55;;;;;;;;;;5107957;28;20229;-61
2021/04/22 01:03:19;;;;;;;13.20;4.50;;;;;;;;;;5105041;28;20189;-61
2021/04/22 01:05:48;;;;;;;12.63;4.40;;;;;;;;;;5102914;28;20758;-61
2021/04/22 01:08:15;;;;;;;13.60;4.30;;;;;;;;;;5102583;28;20210;-61
2021/04/22 01:10:42;;;;;;;14.52;4.57;;;;;;;;;;5103084;28;20210;-60
2021/04/22 01:13:09;;;;;;;10.85;4.95;;;;;;;;;;5102843;28;20206;-61
2021/04/22 01:15:36;;;;;;;13.52;4.25;;;;;;;;;;5099581;28;20228;-61
2021/04/22 01:18:05;;;;;;;8.70;5.28;;;;;;;;;;5098743;28;20197;-61
2021/04/22 01:20:32;;;;;;;17.25;4.57;;;;;;;;;;5098874;28;20206;-62
2021/04/22 01:23:01;;;;;;;12.00;4.30;;;;;;;;;;5098284;28;20210;-62
2021/04/22 01:25:29;;;;;;;12.20;4.45;;;;;;;;;;5097666;28;20255;-62
2021/04/22 01:27:56;;;;;;;16.58;4.75;;;;;;;;;;5096822;28;20206;-62
2021/04/22 01:30:24;;;;;;;14.75;4.78;;;;;;;;;;5096749;28;20200;-61
2021/04/22 01:32:51;;;;;;;13.30;4.30;;;;;;;;;;5097857;28;20205;-62
2021/04/22 01:35:20;;;;;;;13.10;4.30;;;;;;;;;;5096419;28;20218;-61
2021/04/22 01:37:47;;;;;;;11.93;4.40;;;;;;;;;;5097155;28;20211;-62
2021/04/22 01:40:16;;;;;;;11.70;4.80;;;;;;;;;;5096945;28;20202;-61
2021/04/22 01:42:42;;;;;;;21.50;5.35;;;;;;;;;;5096566;28;20258;-61
2021/04/22 01:45:10;;;;;;;11.77;3.50;;;;;;;;;;5096949;28;20726;-61
2021/04/22 01:47:37;;;;;;;13.50;4.55;;;;;;;;;;5096415;28;20254;-62
2021/04/22 01:50:04;;;;;;;11.27;4.20;;;;;;;;;;5096652;28;20231;-61
2021/04/22 01:52:31;;;;;;;10.80;4.93;;;;;;;;;;5096366;28;20202;-61
2021/04/22 01:54:58;;;;;;;16.10;4.90;;;;;;;;;;5096541;28;20221;-61
2021/04/22 01:57:25;;;;;;;13.85;4.60;;;;;;;;;;5096986;28;20205;-61
2021/04/22 01:59:52;;;;;;;11.38;4.63;;;;;;;;;;5096714;28;20206;-61
2021/04/22 02:02:19;;;;;;;16.05;5.03;;;;;;;;;;5095852;28;20581;-61
2021/04/22 02:04:46;;;;;;;11.95;4.57;;;;;;;;;;5097929;28;20206;-60
2021/04/22 02:07:13;;;;;;;11.93;4.78;;;;;;;;;;5098703;28;20209;-62
2021/04/22 02:09:39;;;;;;;14.05;4.18;;;;;;;;;;5098543;28;20225;-61
2021/04/22 02:12:07;;;;;;;10.40;4.03;;;;;;;;;;5097963;28;20196;-61
2021/04/22 02:14:34;;;;;;;11.05;4.00;;;;;;;;;;5095953;28;20202;-62
2021/04/22 02:17:01;;;;;;;11.88;4.60;;;;;;;;;;5095675;28;20204;-61
2021/04/22 02:19:28;;;;;;;14.90;4.82;;;;;;;;;;5096104;28;20224;-61
2021/04/22 02:21:55;;;;;;;9.43;4.65;;;;;;;;;;5095937;28;20323;-61
2021/04/22 02:24:22;;;;;;;14.70;4.55;;;;;;;;;;5095611;28;20200;-61
2021/04/22 02:26:49;;;;;;;10.50;4.72;;;;;;;;;;5095847;28;20239;-61
2021/04/22 02:29:15;;;;;;;12.50;4.93;;;;;;;;;;5095889;28;20225;-61
2021/04/22 02:31:43;;;;;;;11.15;4.70;;;;;;;;;;5095669;28;20202;-61
2021/04/22 02:34:10;;;;;;;11.38;4.13;;;;;;;;;;5095663;28;20198;-61
2021/04/22 02:36:36;;;;;;;11.73;4.40;;;;;;;;;;5095371;28;20220;-61
2021/04/22 02:39:04;;;;;;;9.25;4.88;;;;;;;;;;5095332;28;20196;-61
2021/04/22 02:41:31;;;;;;;12.90;4.45;;;;;;;;;;5095398;28;20258;-61
2021/04/22 02:43:58;;;;;;;11.88;3.72;;;;;;;;;;5095252;28;20200;-61
2021/04/22 02:46:24;;;;;;;11.23;4.10;;;;;;;;;;5094040;28;20216;-60
2021/04/22 02:48:52;;;;;;;19.23;5.45;;;;;;;;;;5095741;28;20213;-60
2021/04/22 02:51:19;;;;;;;11.55;4.55;;;;;;;;;;5095263;28;20208;-61
2021/04/22 02:53:46;;;;;;;17.33;4.22;;;;;;;;;;5095144;28;20209;-61
2021/04/22 02:56:12;;;;;;;11.00;4.63;;;;;;;;;;5095134;28;20228;-61
2021/04/22 02:58:39;;;;;;;11.93;4.40;;;;;;;;;;5095032;28;20197;-60
2021/04/22 03:01:06;;;;;;;13.57;4.47;;;;;;;;;;5094984;28;20208;-61
2021/04/22 03:03:32;;;;;;;22.45;4.90;;;;;;;;;;5095121;28;20204;-61
2021/04/22 03:06:00;;;;;;;9.80;4.03;;;;;;;;;;5094700;28;20241;-61
2021/04/22 03:08:27;;;;;;;12.88;4.22;;;;;;;;;;5094469;28;20234;-62
2021/04/22 03:10:54;;;;;;;12.98;4.20;;;;;;;;;;5094974;28;20567;-61
2021/04/22 03:13:20;;;;;;;17.55;4.43;;;;;;;;;;5095091;28;20206;-61
2021/04/22 03:15:47;;;;;;;17.02;4.63;;;;;;;;;;5094715;28;20262;-61
2021/04/22 03:18:14;;;;;;;13.73;4.43;;;;;;;;;;5094759;28;20204;-60
2021/04/22 03:20:41;;;;;;;19.60;4.18;;;;;;;;;;5094603;28;20202;-61
2021/04/22 03:23:09;;;;;;;9.63;3.83;;;;;;;;;;5095579;28;20206;-61
2021/04/22 03:25:36;;;;;;;10.55;3.45;;;;;;;;;;5094931;28;20232;-61
2021/04/22 03:28:04;;;;;;;12.45;3.78;;;;;;;;;;5094921;28;20197;-60
2021/04/22 03:30:31;;;;;;;10.18;3.80;;;;;;;;;;5094682;28;20205;-60
2021/04/22 03:32:58;;;;;;;13.23;4.40;;;;;;;;;;5094305;28;20205;-60
2021/04/22 03:35:26;;;;;;;17.95;4.47;;;;;;;;;;5094237;28;20222;-61
2021/04/22 03:37:53;;;;;;;11.80;4.93;;;;;;;;;;5094306;28;20202;-61
2021/04/22 03:40:22;;;;;;;16.80;4.40;;;;;;;;;;5094387;28;20251;-60
2021/04/22 03:42:49;;;;;;;10.38;4.00;;;;;;;;;;5093841;28;20220;-61
2021/04/22 03:45:16;;;;;;;12.88;4.68;;;;;;;;;;5094092;28;20225;-61
2021/04/22 03:47:43;;;;;;;12.00;3.63;;;;;;;;;;5093741;28;20251;-61
2021/04/22 03:50:11;;;;;;;9.43;3.70;;;;;;;;;;5093977;28;20293;-60
2021/04/22 03:52:38;;;;;;;11.27;3.45;;;;;;;;;;5093670;28;20205;-61
2021/04/22 03:55:06;;;;;;;7.35;3.58;;;;;;;;;;5093961;28;20225;-60
2021/04/22 03:57:34;;;;;;;8.25;4.05;;;;;;;;;;5093463;28;20197;-60
2021/04/22 04:00:01;;;;;;;11.50;4.15;;;;;;;;;;5093640;28;20204;-60
2021/04/22 04:02:28;;;;;;;14.40;4.60;;;;;;;;;;5095012;28;20197;-62
2021/04/22 04:08:00;;;;;;;18.98;4.03;;;;;;;;;;5112233;27;20535;-60
2021/04/22 04:10:27;;;;;;;14.10;4.75;;;;;;;;;;5112066;28;20283;-61
2021/04/22 04:12:54;;;;;;;10.52;4.50;;;;;;;;;;5111730;28;20214;-61
2021/04/22 04:15:21;;;;;;;11.65;3.78;;;;;;;;;;5111146;28;20225;-60
2021/04/22 04:17:47;;;;;;;9.05;3.47;;;;;;;;;;5111374;28;20210;-61
2021/04/22 04:20:15;;;;;;;13.93;3.65;;;;;;;;;;5111825;28;20198;-61
2021/04/22 04:22:42;;;;;;;13.20;3.55;;;;;;;;;;5111967;28;20201;-60
2021/04/22 04:25:10;;;;;;;9.23;4.13;;;;;;;;;;5111361;28;20226;-60
2021/04/22 04:27:37;;;;;;;10.57;3.60;;;;;;;;;;5110819;28;20213;-61
2021/04/22 04:30:05;;;;;;;13.65;3.45;;;;;;;;;;5111039;28;20276;-62
2021/04/22 04:32:32;;;;;;;15.73;3.92;;;;;;;;;;5111182;28;20240;-60
2021/04/22 04:34:59;;;;;;;8.48;4.00;;;;;;;;;;5111067;28;20227;-62
2021/04/22 04:37:26;;;;;;;8.02;3.55;;;;;;;;;;5111474;28;20202;-61
2021/04/22 04:39:52;;;;;;;12.35;3.17;;;;;;;;;;5110927;28;20689;-61
2021/04/22 04:42:20;;;;;;;12.65;3.72;;;;;;;;;;5111169;28;20280;-61
2021/04/22 04:44:47;;;;;;;12.13;3.78;;;;;;;;;;5110961;28;20206;-60
2021/04/22 04:47:14;;;;;;;12.98;3.85;;;;;;;;;;5110633;28;20215;-61
2021/04/22 04:49:41;;;;;;;10.27;3.58;;;;;;;;;;5110661;28;20199;-62
2021/04/22 04:52:08;;;;;;;11.20;3.65;;;;;;;;;;5111071;28;20230;-61
2021/04/22 04:54:35;;;;;;;13.40;3.72;;;;;;;;;;5111064;28;20202;-64
2021/04/22 04:57:01;;;;;;;8.57;3.60;;;;;;;;;;5111047;28;20198;-61
2021/04/22 04:59:29;;;;;;;12.38;4.05;;;;;;;;;;5111098;28;20256;-61
2021/04/22 05:01:56;;;;;;;11.40;4.40;;;;;;;;;;5111006;28;20736;-61
2021/04/22 05:04:22;;;;;;;13.10;5.03;;;;;;;;;;5115103;28;20210;-61
2021/04/22 05:06:49;;;;;;;12.98;4.15;;;;;;;;;;5126956;28;20254;-61
2021/04/22 05:09:16;;;;;;;11.23;3.60;;;;;;;;;;5124421;28;20302;-61
2021/04/22 05:11:43;;;;;;;14.25;3.95;;;;;;;;;;5117512;28;20206;-61
2021/04/22 05:14:09;;;;;;;11.13;3.65;;;;;;;;;;5121073;28;20196;-62
2021/04/22 05:16:37;;;;;;;13.38;3.42;;;;;;;;;;5110775;28;20214;-61
2021/04/22 05:19:04;;;;;;;13.07;3.53;;;;;;;;;;5098940;28;20207;-61
2021/04/22 05:21:31;;;;;;;7.60;4.05;;;;;;;;;;5096638;28;20203;-60
2021/04/22 05:23:58;;;;;;;8.88;3.33;;;;;;;;;;5096572;28;20208;-61
2021/04/22 05:26:24;;;;;;;9.30;3.00;;;;;;;;;;5096545;28;20223;-60
2021/04/22 05:28:53;;;;;;;19.05;4.70;;;;;;;;;;5096529;28;20207;-61
2021/04/22 05:31:20;;;;;;;20.48;4.57;;;;;;;;;;5096626;28;20204;-61
2021/04/22 05:33:48;;;;;;;10.70;4.20;;;;;;;;;;5096660;28;20292;-60
2021/04/22 05:36:15;;;;;;;7.82;3.08;;;;;;;;;;5097138;28;20566;-62
2021/04/22 05:38:42;;;;;;;8.48;3.53;;;;;;;;;;5096654;28;20208;-61
2021/04/22 05:41:09;;;;;;;7.13;3.47;;;;;;;;;;5097212;28;20257;-60
2021/04/22 05:43:36;;;;;;;10.50;3.80;;;;;;;;;;5097761;28;20212;-61
2021/04/22 05:46:03;;;;;;;16.35;3.55;;;;;;;;;;5097077;28;20248;-62
2021/04/22 05:48:30;;;;;;;19.42;4.70;;;;;;;;;;5096636;28;20569;-60
2021/04/22 05:50:58;;;;;;;13.95;4.13;;;;;;;;;;5096157;28;20222;-61
2021/04/22 05:53:24;;;;;;;12.75;3.80;;;;;;;;;;5095539;28;20207;-60
2021/04/22 05:55:51;;;;;;;8.70;3.08;;;;;;;;;;5095726;28;20295;-62
2021/04/22 05:58:18;;;;;;;14.38;4.47;;;;;;;;;;5095952;28;20550;-61
2021/04/22 06:00:45;;;;;;;10.60;4.15;;;;;;;;;;5095805;28;20202;-60
2021/04/22 06:03:12;;;;;;;6.63;3.60;;;;;;;;;;5095839;28;20204;-61
2021/04/22 06:05:39;;;;;;;10.32;3.55;;;;;;;;;;5095711;28;20236;-61
2021/04/22 06:08:06;;;;;;;10.23;4.03;;;;;;;;;;5095429;28;20205;-62
2021/04/22 06:10:33;;;;;;;8.10;2.78;;;;;;;;;;5095865;28;20212;-61
2021/04/22 06:13:00;;;;;;;15.15;3.20;;;;;;;;;;5095770;28;20259;-62
2021/04/22 06:15:27;;;;;;;13.98;3.90;;;;;;;;;;5095496;28;20222;-62
2021/04/22 06:17:53;;;;;;;11.38;3.53;;;;;;;;;;5095329;28;20255;-61
2021/04/22 06:20:21;;;;;;;11.43;3.88;;;;;;;;;;5095122;28;20695;-61
2021/04/22 06:22:49;;;;;;;7.35;3.97;;;;;;;;;;5094969;28;20199;-62
2021/04/22 06:25:17;;;;;;;8.77;3.05;;;;;;;;;;5094797;28;20221;-62
2021/04/22 06:27:44;;;;;;;11.52;2.92;;;;;;;;;;5094606;28;20224;-62
2021/04/22 06:30:12;;;;;;;11.27;3.60;;;;;;;;;;5095523;28;20203;-61
2021/04/22 06:32:38;;;;;;;9.80;3.95;;;;;;;;;;5095296;28;20201;-60
2021/04/22 06:35:06;;;;;;;9.00;3.22;;;;;;;;;;5094748;28;20247;-59
2021/04/22 06:37:33;;;;;;;10.48;3.00;;;;;;;;;;5095665;28;20202;-61
2021/04/22 06:39:59;;;;;;;10.75;3.30;;;;;;;;;;5094626;28;20437;-62
2021/04/22 06:42:27;;;;;;;13.18;4.43;;;;;;;;;;5095751;28;20585;-61
2021/04/22 06:44:54;;;;;;;13.55;3.78;;;;;;;;;;5095809;28;20225;-60
2021/04/22 06:47:21;;;;;;;13.30;3.55;;;;;;;;;;5095066;28;20241;-62
2021/04/22 06:49:48;;;;;;;8.93;3.90;;;;;;;;;;5095724;28;20210;-61
2021/04/22 06:52:17;;;;;;;10.13;2.88;;;;;;;;;;5095081;28;20201;-61
2021/04/22 06:54:43;;;;;;;10.32;3.13;;;;;;;;;;5094653;28;20211;-62
2021/04/22 06:57:10;;;;;;;10.63;2.95;;;;;;;;;;5094984;28;20198;-61
2021/04/22 06:59:38;;;;;;;8.13;3.58;;;;;;;;;;5095655;28;20205;-62
2021/04/22 07:02:05;;;;;;;7.35;2.83;;;;;;;;;;5094936;28;20206;-62
2021/04/22 07:04:31;;;;;;;10.88;3.03;;;;;;;;;;5095085;28;20201;-62
2021/04/22 07:06:58;;;;;;;11.63;3.38;;;;;;;;;;5095814;28;20224;-62
2021/04/22 07:09:25;;;;;;;11.57;3.67;;;;;;;;;;5097292;28;20197;-61
2021/04/22 07:11:52;;;;;;;11.63;3.28;;;;;;;;;;5108659;28;20202;-62
2021/04/22 07:14:19;;;;;;;5.55;2.80;;;;;;;;;;5111220;28;20207;-60
2021/04/22 07:16:46;;;;;;;12.98;3.60;;;;;;;;;;5110169;28;20229;-61
2021/04/22 07:19:13;;;;;;;7.50;3.10;;;;;;;;;;5111674;28;20274;-61
2021/04/22 07:21:40;;;;;;;7.43;3.17;;;;;;;;;;5110233;28;20214;-61
2021/04/22 07:24:07;;;;;;;9.80;3.50;;;;;;;;;;5106793;28;20207;-60
2021/04/22 07:26:34;;;;;;;10.80;3.28;;;;;;;;;;5104661;28;20232;-60
2021/04/22 07:29:01;;;;;;;10.07;3.53;;;;;;;;;;5105411;28;20202;-60
2021/04/22 07:31:28;;;;;;;8.07;3.00;;;;;;;;;;5106039;28;20210;-61
2021/04/22 07:33:57;;;;;;;11.35;3.45;;;;;;;;;;5105426;28;20214;-59
2021/04/22 07:36:23;;;;;;;12.30;3.20;;;;;;;;;;5104560;28;20229;-61
2021/04/22 07:38:50;;;;;;;9.10;3.75;;;;;;;;;;5101736;28;20207;-63
2021/04/22 07:41:17;;;;;;;15.00;4.25;;;;;;;;;;5102224;28;20217;-62
2021/04/22 07:43:44;;;;;;;6.57;2.88;;;;;;;;;;5101792;28;20207;-62
2021/04/22 07:46:11;;;;;;;8.80;2.97;;;;;;;;;;5101245;28;20233;-61
2021/04/22 07:48:38;;;;;;;16.35;3.60;;;;;;;;;;5097802;28;20233;-63
2021/04/22 07:51:05;;;;;;;8.13;3.17;;;;;;;;;;5094505;28;20200;-62
2021/04/22 07:53:33;;;;;;;8.68;2.97;;;;;;;;;;5094913;28;20233;-62
2021/04/22 07:56:00;;;;;;;8.02;3.10;;;;;;;;;;5094988;28;20222;-63
2021/04/22 07:58:27;;;;;;;12.23;2.78;;;;;;;;;;5094080;28;20202;-63
2021/04/22 08:00:54;;;;;;;12.30;3.50;;;;;;;;;;5094169;28;20209;-61
2021/04/22 08:03:21;;;;;;;9.68;3.13;;;;;;;;;;5093505;28;20252;-62
2021/04/22 08:05:54;;;;;;;13.25;3.10;;;;;;;;;;5094116;28;20598;-64
2021/04/22 08:08:22;;;;;;;10.88;3.08;;;;;;;;;;5092762;28;20424;-58
2021/04/22 08:10:49;;;;;;;6.13;2.85;;;;;;;;;;5093383;28;20219;-63
2021/04/22 08:13:17;;;;;;;9.95;4.10;;;;;;;;;;5093590;28;20217;-62
2021/04/22 08:15:44;;;;;;;9.80;3.30;;;;;;;;;;5093395;28;20304;-63
2021/04/22 08:18:11;;;;;;;9.68;3.83;;;;;;;;;;5093706;28;20200;-63
2021/04/22 08:20:38;;;;;;;7.82;3.00;;;;;;;;;;5093594;28;20620;-64
2021/04/22 08:23:06;;;;;;;9.27;3.15;;;;;;;;;;5093546;28;20209;-62
2021/04/22 08:25:35;;;;;;;12.10;3.50;;;;;;;;;;5092506;28;20436;-63
2021/04/22 08:28:02;;;;;;;8.88;2.80;;;;;;;;;;5093215;28;20227;-63
2021/04/22 08:30:30;;;;;;;7.82;3.30;;;;;;;;;;5093244;28;20295;-62
2021/04/22 08:32:57;;;;;;;10.38;2.92;;;;;;;;;;5093220;28;20257;-63
2021/04/22 08:35:24;;;;;;;10.13;2.88;;;;;;;;;;5093503;28;20551;-62
2021/04/22 08:37:51;;;;;;;7.88;3.10;;;;;;;;;;5093041;28;20207;-63
2021/04/22 08:40:19;;;;;;;6.95;2.97;;;;;;;;;;5093062;28;20263;-64
2021/04/22 08:42:46;;;;;;;4.38;2.50;;;;;;;;;;5093161;28;20203;-63
2021/04/22 08:45:14;;;;;;;4.60;3.10;;;;;;;;;;5092893;28;20247;-63
2021/04/22 08:47:41;;;;;;;2.13;1.92;;;;;;;;;;5093323;28;20216;-62
2021/04/22 08:50:10;;;;;;;9.23;2.80;;;;;;;;;;5093411;28;20673;-63
2021/04/22 08:52:36;;;;;;;5.87;2.93;;;;;;;;;;5093291;28;20611;-64
2021/04/22 08:55:05;;;;;;;4.65;2.35;;;;;;;;;;5096625;28;20466;-64
2021/04/22 08:57:31;;;;;;;6.65;3.10;;;;;;;;;;5097161;28;20211;-63
2021/04/22 08:59:59;;;;;;;4.63;2.90;;;;;;;;;;5097437;28;20595;-62
2021/04/22 09:02:26;;;;;;;9.18;2.60;;;;;;;;;;5099590;28;20471;-64
2021/04/22 09:04:53;;;;;;;3.88;2.38;;;;;;;;;;5110383;28;20224;-63
2021/04/22 09:07:20;;;;;;;4.22;2.25;;;;;;;;;;5109513;28;20224;-63
2021/04/22 09:09:47;;;;;;;7.30;2.00;;;;;;;;;;5109925;28;20198;-62
2021/04/22 09:12:15;;;;;;;4.97;2.40;;;;;;;;;;5110877;28;20234;-62
2021/04/22 09:14:51;;;;;;;6.73;2.67;;;;;;;;;;5110032;28;20200;-63
2021/04/22 09:17:20;;;;;;;6.73;2.37;;;;;;;;;;5101744;28;20901;-63
2021/04/22 09:19:46;;;;;;;5.33;2.47;;;;;;;;;;5098899;28;20442;-64
2021/04/22 09:22:13;;;;;;;10.20;2.55;;;;;;;;;;5102843;28;20452;-63
2021/04/22 09:24:40;;;;;;;8.00;2.30;;;;;;;;;;5105640;28;20223;-63
2021/04/22 09:27:11;;;;;;;5.03;2.23;;;;;;;;;;5101170;28;20498;-63
2021/04/22 09:29:40;;;;;;;5.55;2.15;;;;;;;;;;5101680;28;20896;-62
2021/04/22 09:32:07;;;;;;;6.68;2.58;;;;;;;;;;5106267;28;20298;-65
2021/04/22 09:34:35;;;;;;;10.35;2.33;;;;;;;;;;5109638;28;20895;-65
2021/04/22 09:37:03;;;;;;;4.93;2.67;;;;;;;;;;5105757;28;20297;-64
2021/04/22 09:39:30;;;;;;;9.23;2.30;;;;;;;;;;5106867;28;20674;-65
2021/04/22 09:41:58;;;;;;;10.17;2.43;;;;;;;;;;5103751;28;20516;-64
2021/04/22 09:44:25;;;;;;;15.43;3.20;;;;;;;;;;5102182;28;20469;-63
2021/04/22 09:47:02;;;;;;;6.23;2.33;;;;;;;;;;5097016;28;20483;-63
2021/04/22 09:49:28;;;;;;;7.43;2.47;;;;;;;;;;5097182;28;20448;-62
2021/04/22 09:52:05;;;;;;;6.50;2.87;;;;;;;;;;5096201;28;20442;-63
2021/04/22 09:54:32;;;;;;;10.67;3.60;;;;;;;;;;5095974;28;20435;-63
2021/04/22 09:56:58;;;;;;;6.60;2.90;;;;;;;;;;5095828;28;20448;-64
2021/04/22 09:59:27;;;;;;;6.37;3.00;;;;;;;;;;5096138;28;20447;-64
2021/04/22 10:02:02;;;;;;;3.53;2.67;;;;;;;;;;5098085;28;20535;-64
2021/04/22 10:04:32;;;;;;;8.00;3.00;;;;;;;;;;5100586;28;20446;-64
2021/04/22 10:07:00;;;;;;;7.97;3.05;;;;;;;;;;5099685;28;20520;-64
2021/04/22 10:09:31;;;;;;;7.33;2.80;;;;;;;;;;5100353;28;20196;-62
2021/04/22 10:11:57;;;;;;;9.17;3.13;;;;;;;;;;5098273;28;20532;-64
2021/04/22 10:14:31;;;;;;;9.60;3.15;;;;;;;;;;5096345;28;20446;-64
2021/04/22 10:16:58;;;;;;;5.78;2.63;;;;;;;;;;5096275;28;20284;-64
2021/04/22 10:19:25;;;;;;;6.87;2.40;;;;;;;;;;5096388;28;20616;-63
2021/04/22 10:21:52;;;;;;;7.38;2.95;;;;;;;;;;5095363;28;20451;-62
2021/04/22 10:24:26;;;;;;;5.37;2.73;;;;;;;;;;5095758;28;20234;-61
2021/04/22 10:26:58;;;;;;;7.20;2.93;;;;;;;;;;5096677;28;20626;-63
2021/04/22 10:29:24;;;;;;;7.83;2.60;;;;;;;;;;5095349;28;20446;-63
2021/04/22 10:31:52;;;;;;;6.63;3.00;;;;;;;;;;5095355;28;20882;-63
2021/04/22 10:34:18;;;;;;;8.70;2.83;;;;;;;;;;5095007;28;20445;-63
2021/04/22 10:36:45;;;;;;;7.83;2.63;;;;;;;;;;5094960;28;20916;-64
2021/04/22 10:39:15;;;;;;;10.70;3.07;;;;;;;;;;5094784;28;20874;-63
2021/04/22 10:41:44;;;;;;;8.97;3.20;;;;;;;;;;5095964;28;20479;-62
2021/04/22 10:44:12;;;;;;;7.60;2.27;;;;;;;;;;5095251;28;20449;-63
2021/04/22 10:46:40;;;;;;;5.80;2.43;;;;;;;;;;5100282;28;20541;-63
2021/04/22 10:49:07;;;;;;;9.93;2.60;;;;;;;;;;5105114;28;20518;-62
2021/04/22 10:51:35;;;;;;;8.13;3.53;;;;;;;;;;5112189;28;20461;-62
2021/04/22 10:54:04;;;;;;;6.47;2.83;;;;;;;;;;5110368;28;20441;-63
2021/04/22 10:56:31;;;;;;;7.00;2.40;;;;;;;;;;5096952;28;20459;-62
2021/04/22 10:58:58;;;;;;;7.40;3.10;;;;;;;;;;5095708;28;20449;-61
2021/04/22 11:01:33;;;;;;;8.73;2.60;;;;;;;;;;5095447;28;20450;-61
2021/04/22 11:04:03;;;;;;;7.13;3.27;;;;;;;;;;5094823;28;20843;-62
2021/04/22 11:06:33;;;;;;;6.70;2.23;;;;;;;;;;5094596;28;20534;-61
2021/04/22 11:09:10;;;;;;;8.97;3.37;;;;;;;;;;5095379;28;20450;-62
2021/04/22 11:11:38;;;;;;;5.97;3.10;;;;;;;;;;5095340;28;20833;-61
2021/04/22 11:14:06;;;;;;;8.40;2.93;;;;;;;;;;5095075;28;20446;-62
2021/04/22 11:16:34;;;;;;;9.87;2.40;;;;;;;;;;5094639;28;20458;-62
2021/04/22 11:19:01;;;;;;;10.87;2.97;;;;;;;;;;5094498;28;20503;-62
2021/04/22 11:21:29;;;;;;;11.53;3.37;;;;;;;;;;5095030;28;20548;-62
2021/04/22 11:23:57;;;;;;;8.10;3.20;;;;;;;;;;5095196;28;20446;-62
2021/04/22 11:26:27;;;;;;;5.37;2.20;;;;;;;;;;5095040;28;20465;-61
2021/04/22 11:28:55;;;;;;;8.20;2.97;;;;;;;;;;5096193;28;20454;-62
2021/04/22 11:31:24;;;;;;;5.53;2.63;;;;;;;;;;5094632;28;20439;-61
2021/04/22 11:33:51;;;;;;;5.93;2.40;;;;;;;;;;5095110;28;20454;-61
2021/04/22 11:36:19;;;;;;;5.90;2.23;;;;;;;;;;5095157;28;20474;-62
2021/04/22 11:38:53;;;;;;;7.13;2.90;;;;;;;;;;5095103;28;20442;-61
2021/04/22 11:41:20;;;;;;;4.60;2.40;;;;;;;;;;5094972;28;20816;-61
2021/04/22 11:43:46;;;;;;;4.60;2.53;;;;;;;;;;5094313;28;20937;-61
2021/04/22 11:46:13;;;;;;;6.97;2.37;;;;;;;;;;5094437;28;20466;-62
2021/04/22 11:48:42;;;;;;;5.17;1.80;;;;;;;;;;5093474;28;20494;-62
2021/04/22 11:51:09;;;;;;;7.70;1.97;;;;;;;;;;5093955;28;20468;-62
2021/04/22 11:53:37;;;;;;;7.50;3.47;;;;;;;;;;5094258;28;20446;-62
2021/04/22 11:56:04;;;;;;;5.67;2.80;;;;;;;;;;5093924;28;20561;-62
2021/04/22 11:58:33;;;;;;;9.30;2.97;;;;;;;;;;5094052;28;20529;-62
2021/04/22 12:01:01;;;;;;;5.97;2.60;;;;;;;;;;5093965;28;20449;-61
2021/04/22 12:03:28;;;;;;;5.10;2.80;;;;;;;;;;5093743;28;20445;-62
2021/04/22 12:05:56;;;;;;;6.83;2.80;;;;;;;;;;5094182;28;20986;-60
2021/04/22 12:08:27;;;;;;;5.30;2.77;;;;;;;;;;5095046;28;20472;-61
2021/04/22 12:10:54;;;;;;;5.43;2.40;;;;;;;;;;5094336;28;20431;-61
2021/04/22 12:13:21;;;;;;;6.10;2.90;;;;;;;;;;5094474;28;20447;-61
2021/04/22 12:15:49;;;;;;;8.37;2.93;;;;;;;;;;5093879;28;20467;-61
2021/04/22 12:18:21;;;;;;;6.43;2.20;;;;;;;;;;5093889;28;20446;-62
2021/04/22 12:20:48;;;;;;;8.40;3.20;;;;;;;;;;5094083;28;20495;-62
2021/04/22 12:23:16;;;;;;;4.67;2.50;;;;;;;;;;5094136;28;20445;-62
2021/04/22 12:25:43;;;;;;;5.50;2.47;;;;;;;;;;5094105;28;20497;-62
2021/04/22 12:28:10;;;;;;;7.63;2.70;;;;;;;;;;5095045;28;20547;-62
2021/04/22 12:30:39;;;;;;;6.90;2.63;;;;;;;;;;5098191;28;20445;-61
2021/04/22 12:33:08;;;;;;;7.23;3.20;;;;;;;;;;5098463;28;20453;-62
2021/04/22 12:35:36;;;;;;;4.93;2.43;;;;;;;;;;5098553;28;20524;-62
2021/04/22 12:38:14;;;;;;;6.27;2.70;;;;;;;;;;5098687;28;20445;-62
2021/04/22 12:40:41;;;;;;;6.17;2.70;;;;;;;;;;5099751;28;20504;-63
2021/04/22 12:43:08;;;;;;;5.27;2.90;;;;;;;;;;5098993;28;20457;-62
2021/04/22 12:45:37;;;;;;;5.50;3.00;;;;;;;;;;5098171;28;20472;-61
2021/04/22 12:48:04;;;;;;;5.73;2.90;;;;;;;;;;5097652;28;21020;-62
2021/04/22 12:50:35;;;;;;;6.00;3.00;;;;;;;;;;5097790;28;20810;-62
2021/04/22 12:53:03;;;;;;;5.57;2.83;;;;;;;;;;5097570;28;20439;-62
2021/04/22 12:55:33;;;;;;;4.13;2.97;;;;;;;;;;5098055;28;20459;-61
2021/04/22 12:58:01;;;;;;;9.70;2.83;;;;;;;;;;5098482;28;20434;-62
2021/04/22 13:00:30;;;;;;;5.57;2.83;;;;;;;;;;5098164;28;20944;-62
2021/04/22 13:02:57;;;;;;;6.37;3.10;;;;;;;;;;5099999;28;20442;-61
2021/04/22 13:05:23;;;;;;;5.60;2.83;;;;;;;;;;5098740;28;20519;-63
2021/04/22 13:07:51;;;;;;;7.90;3.00;;;;;;;;;;5098117;28;20504;-61
2021/04/22 13:10:19;;;;;;;6.57;3.40;;;;;;;;;;5097970;28;20450;-63
2021/04/22 13:12:45;;;;;;;9.33;3.17;;;;;;;;;;5098226;28;21007;-62
2021/04/22 13:15:15;;;;;;;6.87;3.07;;;;;;;;;;5099124;28;20480;-62
2021/04/22 13:17:42;;;;;;;10.43;3.57;;;;;;;;;;5097530;28;20442;-62
2021/04/22 13:20:31;;;;;;;7.17;3.40;;;;;;;;;;5097588;28;20513;-62
2021/04/22 13:22:58;;;;;;;7.73;4.57;;;;;;;;;;5092658;28;20462;-62
2021/04/22 13:25:29;;;;;;;9.17;3.83;;;;;;;;;;5097129;28;20466;-62
2021/04/22 13:28:04;;;;;;;4.70;2.33;;;;;;;;;;5097265;28;20482;-61
2021/04/22 13:30:33;;;;;;;7.23;3.53;;;;;;;;;;5097022;28;20434;-62
2021/04/22 13:33:04;;;;;;;7.07;3.07;;;;;;;;;;5097244;28;20450;-61
2021/04/22 13:35:31;;;;;;;8.83;3.17;;;;;;;;;;5098635;28;20473;-62
2021/04/22 13:37:59;;;;;;;7.13;3.53;;;;;;;;;;5097466;28;20453;-62
2021/04/22 13:40:26;;;;;;;6.23;3.60;;;;;;;;;;5095620;28;20938;-62
2021/04/22 13:42:52;;;;;;;6.00;3.70;;;;;;;;;;5096837;28;20961;-61
2021/04/22 13:45:20;;;;;;;7.00;3.50;;;;;;;;;;5096377;28;20480;-60
2021/04/22 13:47:47;;;;;;;7.80;3.53;;;;;;;;;;5096608;28;20496;-62
2021/04/22 13:50:14;;;;;;;5.43;3.13;;;;;;;;;;5097740;28;20834;-62
2021/04/22 13:52:41;;;;;;;5.17;3.00;;;;;;;;;;5096900;28;20450;-62
2021/04/22 13:55:08;;;;;;;12.77;4.13;;;;;;;;;;5096661;28;20462;-62
2021/04/22 13:57:42;;;;;;;5.57;2.90;;;;;;;;;;5096201;28;20929;-62
2021/04/22 14:00:13;;;;;;;8.70;2.80;;;;;;;;;;5096874;28;20433;-62
2021/04/22 14:02:41;;;;;;;5.60;2.67;;;;;;;;;;5097072;28;20456;-62
2021/04/22 14:05:11;;;;;;;5.00;2.50;;;;;;;;;;5096687;28;20473;-63
2021/04/22 14:07:38;;;;;;;10.00;3.33;;;;;;;;;;5096218;28;20478;-61
2021/04/22 14:10:05;;;;;;;5.53;3.60;;;;;;;;;;5096726;28;20446;-62
2021/04/22 14:12:33;;;;;;;9.80;3.30;;;;;;;;;;5095779;28;20451;-62
2021/04/22 14:15:00;;;;;;;5.50;3.50;;;;;;;;;;5095510;28;20508;-62
2021/04/22 14:17:27;;;;;;;5.30;2.77;;;;;;;;;;5095326;28;20438;-62
2021/04/22 14:19:54;;;;;;;9.10;3.00;;;;;;;;;;5095431;28;20503;-62
2021/04/22 14:22:21;;;;;;;4.53;3.30;;;;;;;;;;5095631;28;20446;-61
2021/04/22 14:24:48;;;;;;;5.67;3.73;;;;;;;;;;5095485;28;20446;-62
2021/04/22 14:27:17;;;;;;;8.07;3.27;;;;;;;;;;5095580;28;20836;-61
2021/04/22 14:29:44;;;;;;;6.20;2.47;;;;;;;;;;5095652;28;20450;-62
2021/04/22 14:32:11;;;;;;;4.87;3.23;;;;;;;;;;5095203;28;20477;-61
2021/04/22 14:34:38;;;;;;;7.77;3.33;;;;;;;;;;5095486;28;20469;-62
2021/04/22 14:37:05;;;;;;;6.13;3.30;;;;;;;;;;5095565;28;20466;-62
2021/04/22 14:39:33;;;;;;;3.70;2.63;;;;;;;;;;5095518;28;20511;-62
2021/04/22 14:42:00;;;;;;;5.17;3.10;;;;;;;;;;5095293;28;20781;-62